sensor_id;sensor_type;location;lat;lon;timestamp;P1;durP1;ratioP1;P2;durP2;ratioP2
72209;SDS011;60113;48.762;12.302;2022-11-23T00:01:50;1089.13;;;135.65;;
72209;SDS011;60113;48.762;12.302;2022-11-23T00:04:16;1008.28;;;122.07;;
72209;SDS011;60113;48.762;12.302;2022-11-23T00:06:41;807.30;;;116.65;;
72209;SDS011;60113;48.762;12.302;2022-11-23T00:09:08;869.80;;;112.63;;
72209;SDS011;60113;48.762;12.302;2022-11-23T00:11:34;715.08;;;104.35;;
72209;SDS011;60113;48.762;12.302;2022-11-23T00:14:00;689.60;;;101.28;;
72209;SDS011;60113;48.762;12.302;2022-11-23T00:16:26;795.70;;;112.90;;
72209;SDS011;60113;48.762;12.302;2022-11-23T00:18:54;980.58;;;119.35;;
72209;SDS011;60113;48.762;12.302;2022-11-23T00:21:21;561.65;;;89.85;;
72209;SDS011;60113;48.762;12.302;2022-11-23T00:23:48;815.55;;;108.03;;
72209;SDS011;60113;48.762;12.302;2022-11-23T00:26:15;607.60;;;94.85;;
72209;SDS011;60113;48.762;12.302;2022-11-23T00:28:42;703.28;;;98.10;;
72209;SDS011;60113;48.762;12.302;2022-11-23T00:31:09;639.55;;;92.20;;
72209;SDS011;60113;48.762;12.302;2022-11-23T00:33:36;768.33;;;100.60;;
72209;SDS011;60113;48.762;12.302;2022-11-23T00:36:06;741.08;;;105.57;;
72209;SDS011;60113;48.762;12.302;2022-11-23T00:38:35;596.95;;;91.82;;
72209;SDS011;60113;48.762;12.302;2022-11-23T00:41:02;621.17;;;92.07;;
72209;SDS011;60113;48.762;12.302;2022-11-23T00:43:30;597.40;;;91.32;;
72209;SDS011;60113;48.762;12.302;2022-11-23T00:48:30;372.05;;;77.60;;
72209;SDS011;60113;48.762;12.302;2022-11-23T00:50:56;411.10;;;75.53;;
72209;SDS011;60113;48.762;12.302;2022-11-23T00:53:22;389.88;;;74.53;;
72209;SDS011;60113;48.762;12.302;2022-11-23T00:55:52;665.10;;;98.18;;
72209;SDS011;60113;48.762;12.302;2022-11-23T00:58:19;576.35;;;88.70;;
72209;SDS011;60113;48.762;12.302;2022-11-23T01:00:45;563.15;;;89.68;;
72209;SDS011;60113;48.762;12.302;2022-11-23T01:03:11;621.15;;;90.38;;
72209;SDS011;60113;48.762;12.302;2022-11-23T01:05:36;787.72;;;101.13;;
72209;SDS011;60113;48.762;12.302;2022-11-23T01:08:02;412.02;;;74.60;;
72209;SDS011;60113;48.762;12.302;2022-11-23T01:10:29;701.40;;;92.22;;
72209;SDS011;60113;48.762;12.302;2022-11-23T01:12:55;645.40;;;98.28;;
72209;SDS011;60113;48.762;12.302;2022-11-23T01:15:21;489.92;;;88.40;;
72209;SDS011;60113;48.762;12.302;2022-11-23T01:17:47;619.55;;;96.70;;
72209;SDS011;60113;48.762;12.302;2022-11-23T01:20:13;660.53;;;107.10;;
72209;SDS011;60113;48.762;12.302;2022-11-23T01:22:39;556.33;;;92.75;;
72209;SDS011;60113;48.762;12.302;2022-11-23T01:25:05;457.25;;;86.47;;
72209;SDS011;60113;48.762;12.302;2022-11-23T01:27:31;420.08;;;81.35;;
72209;SDS011;60113;48.762;12.302;2022-11-23T01:29:56;384.52;;;77.30;;
72209;SDS011;60113;48.762;12.302;2022-11-23T01:32:22;533.70;;;89.07;;
72209;SDS011;60113;48.762;12.302;2022-11-23T01:34:48;517.50;;;81.82;;
72209;SDS011;60113;48.762;12.302;2022-11-23T01:37:14;447.08;;;75.32;;
72209;SDS011;60113;48.762;12.302;2022-11-23T01:39:40;477.60;;;75.35;;
72209;SDS011;60113;48.762;12.302;2022-11-23T01:42:05;471.98;;;73.22;;
72209;SDS011;60113;48.762;12.302;2022-11-23T01:44:33;413.80;;;65.03;;
72209;SDS011;60113;48.762;12.302;2022-11-23T01:47:01;423.63;;;64.63;;
72209;SDS011;60113;48.762;12.302;2022-11-23T01:49:32;420.90;;;70.82;;
72209;SDS011;60113;48.762;12.302;2022-11-23T01:52:05;514.03;;;83.88;;
72209;SDS011;60113;48.762;12.302;2022-11-23T01:54:35;442.77;;;77.50;;
72209;SDS011;60113;48.762;12.302;2022-11-23T01:57:18;489.98;;;79.60;;
72209;SDS011;60113;48.762;12.302;2022-11-23T01:59:47;303.42;;;65.35;;
72209;SDS011;60113;48.762;12.302;2022-11-23T02:02:14;403.70;;;70.00;;
72209;SDS011;60113;48.762;12.302;2022-11-23T02:04:42;418.30;;;67.55;;
72209;SDS011;60113;48.762;12.302;2022-11-23T02:07:10;345.13;;;53.88;;
72209;SDS011;60113;48.762;12.302;2022-11-23T02:09:36;211.55;;;47.17;;
72209;SDS011;60113;48.762;12.302;2022-11-23T02:12:02;296.38;;;51.45;;
72209;SDS011;60113;48.762;12.302;2022-11-23T02:14:31;206.88;;;46.83;;
72209;SDS011;60113;48.762;12.302;2022-11-23T02:16:59;317.55;;;56.53;;
72209;SDS011;60113;48.762;12.302;2022-11-23T02:21:51;399.13;;;70.75;;
72209;SDS011;60113;48.762;12.302;2022-11-23T02:24:28;354.60;;;69.22;;
72209;SDS011;60113;48.762;12.302;2022-11-23T02:26:59;249.73;;;58.25;;
72209;SDS011;60113;48.762;12.302;2022-11-23T02:29:26;338.48;;;61.22;;
72209;SDS011;60113;48.762;12.302;2022-11-23T02:31:53;235.65;;;55.38;;
72209;SDS011;60113;48.762;12.302;2022-11-23T02:34:19;201.68;;;51.50;;
72209;SDS011;60113;48.762;12.302;2022-11-23T02:36:45;177.32;;;48.70;;
72209;SDS011;60113;48.762;12.302;2022-11-23T02:39:13;125.82;;;44.30;;
72209;SDS011;60113;48.762;12.302;2022-11-23T02:41:48;128.02;;;45.72;;
72209;SDS011;60113;48.762;12.302;2022-11-23T02:44:28;112.70;;;42.65;;
72209;SDS011;60113;48.762;12.302;2022-11-23T02:47:04;123.15;;;43.40;;
72209;SDS011;60113;48.762;12.302;2022-11-23T02:49:31;136.80;;;47.05;;
72209;SDS011;60113;48.762;12.302;2022-11-23T02:51:56;146.63;;;49.45;;
72209;SDS011;60113;48.762;12.302;2022-11-23T02:54:22;121.68;;;47.35;;
72209;SDS011;60113;48.762;12.302;2022-11-23T02:56:48;128.10;;;48.55;;
72209;SDS011;60113;48.762;12.302;2022-11-23T02:59:13;143.45;;;51.30;;
72209;SDS011;60113;48.762;12.302;2022-11-23T03:01:39;159.85;;;57.40;;
72209;SDS011;60113;48.762;12.302;2022-11-23T03:04:05;186.15;;;59.00;;
72209;SDS011;60113;48.762;12.302;2022-11-23T03:06:31;161.27;;;59.92;;
72209;SDS011;60113;48.762;12.302;2022-11-23T03:08:57;146.73;;;61.33;;
72209;SDS011;60113;48.762;12.302;2022-11-23T03:11:23;126.60;;;56.47;;
72209;SDS011;60113;48.762;12.302;2022-11-23T03:13:48;119.10;;;51.72;;
72209;SDS011;60113;48.762;12.302;2022-11-23T03:16:14;122.43;;;52.13;;
72209;SDS011;60113;48.762;12.302;2022-11-23T03:18:40;121.72;;;53.60;;
72209;SDS011;60113;48.762;12.302;2022-11-23T03:21:06;112.22;;;51.15;;
72209;SDS011;60113;48.762;12.302;2022-11-23T03:23:33;99.68;;;47.13;;
72209;SDS011;60113;48.762;12.302;2022-11-23T03:25:59;106.40;;;47.38;;
72209;SDS011;60113;48.762;12.302;2022-11-23T03:28:25;98.57;;;45.95;;
72209;SDS011;60113;48.762;12.302;2022-11-23T03:30:50;115.10;;;48.05;;
72209;SDS011;60113;48.762;12.302;2022-11-23T03:33:16;110.15;;;48.72;;
72209;SDS011;60113;48.762;12.302;2022-11-23T03:35:42;121.35;;;48.88;;
72209;SDS011;60113;48.762;12.302;2022-11-23T03:38:08;124.60;;;49.15;;
72209;SDS011;60113;48.762;12.302;2022-11-23T03:40:34;113.25;;;47.38;;
72209;SDS011;60113;48.762;12.302;2022-11-23T03:42:59;109.53;;;46.42;;
72209;SDS011;60113;48.762;12.302;2022-11-23T03:45:25;111.60;;;46.72;;
72209;SDS011;60113;48.762;12.302;2022-11-23T03:47:50;105.00;;;45.88;;
72209;SDS011;60113;48.762;12.302;2022-11-23T03:50:15;99.68;;;45.88;;
72209;SDS011;60113;48.762;12.302;2022-11-23T03:52:41;94.85;;;43.92;;
72209;SDS011;60113;48.762;12.302;2022-11-23T03:55:07;93.50;;;40.78;;
72209;SDS011;60113;48.762;12.302;2022-11-23T03:57:32;101.07;;;42.60;;
72209;SDS011;60113;48.762;12.302;2022-11-23T03:59:58;98.40;;;39.17;;
72209;SDS011;60113;48.762;12.302;2022-11-23T04:02:23;90.65;;;39.22;;
72209;SDS011;60113;48.762;12.302;2022-11-23T04:04:49;89.28;;;39.15;;
72209;SDS011;60113;48.762;12.302;2022-11-23T04:07:15;89.55;;;38.95;;
72209;SDS011;60113;48.762;12.302;2022-11-23T04:09:40;90.90;;;40.03;;
72209;SDS011;60113;48.762;12.302;2022-11-23T04:12:06;92.28;;;40.47;;
72209;SDS011;60113;48.762;12.302;2022-11-23T04:14:33;81.72;;;40.40;;
72209;SDS011;60113;48.762;12.302;2022-11-23T04:16:59;106.63;;;55.20;;
72209;SDS011;60113;48.762;12.302;2022-11-23T04:19:26;105.53;;;51.30;;
72209;SDS011;60113;48.762;12.302;2022-11-23T04:21:51;97.13;;;42.78;;
72209;SDS011;60113;48.762;12.302;2022-11-23T04:24:18;87.10;;;41.13;;
72209;SDS011;60113;48.762;12.302;2022-11-23T04:26:43;100.97;;;43.80;;
72209;SDS011;60113;48.762;12.302;2022-11-23T04:29:09;95.22;;;41.95;;
72209;SDS011;60113;48.762;12.302;2022-11-23T04:31:34;92.78;;;42.15;;
72209;SDS011;60113;48.762;12.302;2022-11-23T04:34:00;96.20;;;42.55;;
72209;SDS011;60113;48.762;12.302;2022-11-23T04:36:25;84.88;;;40.25;;
72209;SDS011;60113;48.762;12.302;2022-11-23T04:38:51;97.22;;;42.30;;
72209;SDS011;60113;48.762;12.302;2022-11-23T04:41:17;98.47;;;42.80;;
72209;SDS011;60113;48.762;12.302;2022-11-23T04:43:43;89.57;;;39.38;;
72209;SDS011;60113;48.762;12.302;2022-11-23T04:46:12;92.22;;;40.85;;
72209;SDS011;60113;48.762;12.302;2022-11-23T04:48:38;97.55;;;41.70;;
72209;SDS011;60113;48.762;12.302;2022-11-23T04:51:03;76.15;;;37.53;;
72209;SDS011;60113;48.762;12.302;2022-11-23T04:53:30;117.68;;;51.05;;
72209;SDS011;60113;48.762;12.302;2022-11-23T04:55:55;108.57;;;45.08;;
72209;SDS011;60113;48.762;12.302;2022-11-23T04:58:21;104.90;;;45.67;;
72209;SDS011;60113;48.762;12.302;2022-11-23T05:00:47;118.35;;;49.88;;
72209;SDS011;60113;48.762;12.302;2022-11-23T05:03:13;139.70;;;51.22;;
72209;SDS011;60113;48.762;12.302;2022-11-23T05:05:39;119.70;;;49.63;;
72209;SDS011;60113;48.762;12.302;2022-11-23T05:08:05;154.55;;;54.22;;
72209;SDS011;60113;48.762;12.302;2022-11-23T05:10:31;143.75;;;55.75;;
72209;SDS011;60113;48.762;12.302;2022-11-23T05:12:57;166.25;;;66.60;;
72209;SDS011;60113;48.762;12.302;2022-11-23T05:15:23;195.95;;;74.95;;
72209;SDS011;60113;48.762;12.302;2022-11-23T05:17:49;149.27;;;55.42;;
72209;SDS011;60113;48.762;12.302;2022-11-23T05:20:15;135.52;;;50.95;;
72209;SDS011;60113;48.762;12.302;2022-11-23T05:22:41;128.15;;;46.60;;
72209;SDS011;60113;48.762;12.302;2022-11-23T05:25:06;118.53;;;43.28;;
72209;SDS011;60113;48.762;12.302;2022-11-23T05:27:32;115.95;;;41.88;;
72209;SDS011;60113;48.762;12.302;2022-11-23T05:29:59;125.32;;;42.88;;
72209;SDS011;60113;48.762;12.302;2022-11-23T05:32:25;116.32;;;42.13;;
72209;SDS011;60113;48.762;12.302;2022-11-23T05:34:50;130.10;;;44.42;;
72209;SDS011;60113;48.762;12.302;2022-11-23T05:37:16;113.53;;;44.42;;
72209;SDS011;60113;48.762;12.302;2022-11-23T05:39:41;117.30;;;45.85;;
72209;SDS011;60113;48.762;12.302;2022-11-23T05:42:07;125.82;;;47.50;;
72209;SDS011;60113;48.762;12.302;2022-11-23T05:44:33;115.13;;;48.22;;
72209;SDS011;60113;48.762;12.302;2022-11-23T05:46:58;165.23;;;64.15;;
72209;SDS011;60113;48.762;12.302;2022-11-23T05:49:24;168.13;;;60.55;;
72209;SDS011;60113;48.762;12.302;2022-11-23T05:51:50;140.73;;;56.83;;
72209;SDS011;60113;48.762;12.302;2022-11-23T05:54:15;142.45;;;58.65;;
72209;SDS011;60113;48.762;12.302;2022-11-23T05:56:41;135.65;;;50.05;;
72209;SDS011;60113;48.762;12.302;2022-11-23T05:59:06;148.32;;;50.85;;
72209;SDS011;60113;48.762;12.302;2022-11-23T06:01:32;140.02;;;48.25;;
72209;SDS011;60113;48.762;12.302;2022-11-23T06:03:58;149.07;;;47.22;;
72209;SDS011;60113;48.762;12.302;2022-11-23T06:06:23;126.03;;;45.22;;
72209;SDS011;60113;48.762;12.302;2022-11-23T06:08:49;116.47;;;41.00;;
72209;SDS011;60113;48.762;12.302;2022-11-23T06:11:16;116.38;;;40.75;;
72209;SDS011;60113;48.762;12.302;2022-11-23T06:13:44;120.45;;;41.97;;
72209;SDS011;60113;48.762;12.302;2022-11-23T06:16:11;110.55;;;42.15;;
72209;SDS011;60113;48.762;12.302;2022-11-23T06:18:37;105.38;;;41.15;;
72209;SDS011;60113;48.762;12.302;2022-11-23T06:21:02;108.45;;;41.85;;
72209;SDS011;60113;48.762;12.302;2022-11-23T06:23:28;116.05;;;43.53;;
72209;SDS011;60113;48.762;12.302;2022-11-23T06:25:53;158.40;;;66.00;;
72209;SDS011;60113;48.762;12.302;2022-11-23T06:28:19;126.45;;;45.58;;
72209;SDS011;60113;48.762;12.302;2022-11-23T06:30:44;145.68;;;50.17;;
72209;SDS011;60113;48.762;12.302;2022-11-23T06:33:10;109.18;;;43.10;;
72209;SDS011;60113;48.762;12.302;2022-11-23T06:35:35;116.93;;;46.90;;
72209;SDS011;60113;48.762;12.302;2022-11-23T06:38:01;119.75;;;53.20;;
72209;SDS011;60113;48.762;12.302;2022-11-23T06:40:27;120.05;;;50.90;;
72209;SDS011;60113;48.762;12.302;2022-11-23T06:42:59;138.68;;;54.55;;
72209;SDS011;60113;48.762;12.302;2022-11-23T06:45:25;133.07;;;51.10;;
72209;SDS011;60113;48.762;12.302;2022-11-23T06:47:54;128.90;;;50.60;;
72209;SDS011;60113;48.762;12.302;2022-11-23T06:50:20;128.38;;;53.08;;
72209;SDS011;60113;48.762;12.302;2022-11-23T06:52:46;133.35;;;55.10;;
72209;SDS011;60113;48.762;12.302;2022-11-23T06:55:12;151.90;;;66.93;;
72209;SDS011;60113;48.762;12.302;2022-11-23T06:57:37;148.05;;;58.25;;
72209;SDS011;60113;48.762;12.302;2022-11-23T07:00:03;150.18;;;59.88;;
72209;SDS011;60113;48.762;12.302;2022-11-23T07:02:29;112.07;;;49.00;;
72209;SDS011;60113;48.762;12.302;2022-11-23T07:04:54;137.75;;;56.20;;
72209;SDS011;60113;48.762;12.302;2022-11-23T07:07:20;189.73;;;80.15;;
72209;SDS011;60113;48.762;12.302;2022-11-23T07:09:45;195.57;;;72.75;;
72209;SDS011;60113;48.762;12.302;2022-11-23T07:12:12;323.05;;;84.75;;
72209;SDS011;60113;48.762;12.302;2022-11-23T07:14:37;413.00;;;160.77;;
72209;SDS011;60113;48.762;12.302;2022-11-23T07:17:04;302.75;;;91.35;;
72209;SDS011;60113;48.762;12.302;2022-11-23T07:19:30;289.08;;;91.53;;
72209;SDS011;60113;48.762;12.302;2022-11-23T07:21:55;199.30;;;80.40;;
72209;SDS011;60113;48.762;12.302;2022-11-23T07:24:21;154.77;;;68.13;;
72209;SDS011;60113;48.762;12.302;2022-11-23T07:26:46;133.60;;;63.28;;
72209;SDS011;60113;48.762;12.302;2022-11-23T07:29:11;140.05;;;67.97;;
72209;SDS011;60113;48.762;12.302;2022-11-23T07:31:37;133.40;;;62.28;;
72209;SDS011;60113;48.762;12.302;2022-11-23T07:34:02;126.22;;;62.65;;
72209;SDS011;60113;48.762;12.302;2022-11-23T07:36:29;122.88;;;60.63;;
72209;SDS011;60113;48.762;12.302;2022-11-23T07:38:54;130.18;;;64.75;;
72209;SDS011;60113;48.762;12.302;2022-11-23T07:41:20;145.35;;;77.82;;
72209;SDS011;60113;48.762;12.302;2022-11-23T07:43:46;149.38;;;76.18;;
72209;SDS011;60113;48.762;12.302;2022-11-23T07:46:12;131.15;;;66.30;;
72209;SDS011;60113;48.762;12.302;2022-11-23T07:48:37;111.07;;;55.60;;
72209;SDS011;60113;48.762;12.302;2022-11-23T07:51:03;105.82;;;53.20;;
72209;SDS011;60113;48.762;12.302;2022-11-23T07:53:28;100.50;;;49.38;;
72209;SDS011;60113;48.762;12.302;2022-11-23T07:55:54;95.65;;;51.38;;
72209;SDS011;60113;48.762;12.302;2022-11-23T07:58:23;100.43;;;52.88;;
72209;SDS011;60113;48.762;12.302;2022-11-23T08:00:49;106.15;;;56.80;;
72209;SDS011;60113;48.762;12.302;2022-11-23T08:03:14;101.55;;;47.67;;
72209;SDS011;60113;48.762;12.302;2022-11-23T08:05:40;75.13;;;40.08;;
72209;SDS011;60113;48.762;12.302;2022-11-23T08:08:05;79.68;;;40.67;;
72209;SDS011;60113;48.762;12.302;2022-11-23T08:10:31;67.25;;;38.53;;
72209;SDS011;60113;48.762;12.302;2022-11-23T08:12:57;65.65;;;38.45;;
72209;SDS011;60113;48.762;12.302;2022-11-23T08:15:24;65.75;;;40.97;;
72209;SDS011;60113;48.762;12.302;2022-11-23T08:17:55;71.40;;;44.03;;
72209;SDS011;60113;48.762;12.302;2022-11-23T08:20:25;58.17;;;35.35;;
72209;SDS011;60113;48.762;12.302;2022-11-23T08:22:51;48.58;;;29.27;;
72209;SDS011;60113;48.762;12.302;2022-11-23T08:25:20;40.72;;;25.75;;
72209;SDS011;60113;48.762;12.302;2022-11-23T08:27:46;40.33;;;23.80;;
72209;SDS011;60113;48.762;12.302;2022-11-23T08:30:12;33.63;;;20.08;;
72209;SDS011;60113;48.762;12.302;2022-11-23T08:32:38;38.78;;;25.90;;
72209;SDS011;60113;48.762;12.302;2022-11-23T08:35:04;25.10;;;15.70;;
72209;SDS011;60113;48.762;12.302;2022-11-23T08:37:30;25.25;;;14.80;;
72209;SDS011;60113;48.762;12.302;2022-11-23T08:39:55;23.33;;;13.40;;
72209;SDS011;60113;48.762;12.302;2022-11-23T08:42:21;20.70;;;12.13;;
72209;SDS011;60113;48.762;12.302;2022-11-23T08:44:46;23.30;;;11.50;;
72209;SDS011;60113;48.762;12.302;2022-11-23T08:47:11;18.20;;;10.40;;
72209;SDS011;60113;48.762;12.302;2022-11-23T08:49:37;21.90;;;12.50;;
72209;SDS011;60113;48.762;12.302;2022-11-23T08:52:02;18.58;;;11.45;;
72209;SDS011;60113;48.762;12.302;2022-11-23T08:54:28;19.48;;;11.25;;
72209;SDS011;60113;48.762;12.302;2022-11-23T08:56:55;18.58;;;10.52;;
72209;SDS011;60113;48.762;12.302;2022-11-23T08:59:21;20.50;;;11.20;;
72209;SDS011;60113;48.762;12.302;2022-11-23T09:01:46;16.77;;;7.93;;
72209;SDS011;60113;48.762;12.302;2022-11-23T09:04:12;22.83;;;12.43;;
72209;SDS011;60113;48.762;12.302;2022-11-23T09:06:37;19.80;;;13.38;;
72209;SDS011;60113;48.762;12.302;2022-11-23T09:09:03;31.83;;;17.80;;
72209;SDS011;60113;48.762;12.302;2022-11-23T09:11:28;12.45;;;6.35;;
72209;SDS011;60113;48.762;12.302;2022-11-23T09:13:53;13.10;;;7.45;;
72209;SDS011;60113;48.762;12.302;2022-11-23T09:16:19;16.30;;;9.68;;
72209;SDS011;60113;48.762;12.302;2022-11-23T09:18:45;18.40;;;8.18;;
72209;SDS011;60113;48.762;12.302;2022-11-23T09:21:10;13.05;;;6.75;;
72209;SDS011;60113;48.762;12.302;2022-11-23T09:23:36;14.48;;;6.85;;
72209;SDS011;60113;48.762;12.302;2022-11-23T09:26:03;11.35;;;6.75;;
72209;SDS011;60113;48.762;12.302;2022-11-23T09:28:29;14.43;;;6.80;;
72209;SDS011;60113;48.762;12.302;2022-11-23T09:30:56;16.38;;;7.13;;
72209;SDS011;60113;48.762;12.302;2022-11-23T09:33:22;12.63;;;6.25;;
72209;SDS011;60113;48.762;12.302;2022-11-23T09:36:21;10.30;;;5.88;;
72209;SDS011;60113;48.762;12.302;2022-11-23T09:38:40;13.20;;;5.97;;
72209;SDS011;60113;48.762;12.302;2022-11-23T09:46:56;8.60;;;5.15;;
72209;SDS011;60113;48.762;12.302;2022-11-23T09:50:11;8.63;;;3.50;;
72209;SDS011;60113;48.762;12.302;2022-11-23T09:52:23;11.27;;;4.50;;
72209;SDS011;60113;48.762;12.302;2022-11-23T09:54:50;8.27;;;4.20;;
72209;SDS011;60113;48.762;12.302;2022-11-23T09:57:20;6.35;;;3.88;;
72209;SDS011;60113;48.762;12.302;2022-11-23T09:59:54;10.35;;;4.70;;
72209;SDS011;60113;48.762;12.302;2022-11-23T10:02:25;15.35;;;4.40;;
72209;SDS011;60113;48.762;12.302;2022-11-23T10:04:56;9.13;;;4.10;;
72209;SDS011;60113;48.762;12.302;2022-11-23T10:18:25;14.10;;;8.27;;
72209;SDS011;60113;48.762;12.302;2022-11-23T10:21:05;21.02;;;11.40;;
72209;SDS011;60113;48.762;12.302;2022-11-23T10:26:45;19.00;;;10.80;;
72209;SDS011;60113;48.762;12.302;2022-11-23T10:29:16;23.58;;;13.15;;
72209;SDS011;60113;48.762;12.302;2022-11-23T10:31:49;18.88;;;9.75;;
72209;SDS011;60113;48.762;12.302;2022-11-23T10:34:18;20.63;;;9.13;;
72209;SDS011;60113;48.762;12.302;2022-11-23T10:36:51;16.35;;;9.00;;
72209;SDS011;60113;48.762;12.302;2022-11-23T10:41:42;19.83;;;10.18;;
72209;SDS011;60113;48.762;12.302;2022-11-23T10:44:29;51.40;;;20.77;;
72209;SDS011;60113;48.762;12.302;2022-11-23T10:46:58;22.05;;;10.07;;
72209;SDS011;60113;48.762;12.302;2022-11-23T10:49:25;21.73;;;12.10;;
72209;SDS011;60113;48.762;12.302;2022-11-23T10:51:56;44.25;;;19.70;;
72209;SDS011;60113;48.762;12.302;2022-11-23T10:57:20;18.10;;;9.43;;
72209;SDS011;60113;48.762;12.302;2022-11-23T11:02:26;12.15;;;8.32;;
72209;SDS011;60113;48.762;12.302;2022-11-23T11:05:11;19.85;;;10.82;;
72209;SDS011;60113;48.762;12.302;2022-11-23T11:07:46;35.05;;;18.83;;
72209;SDS011;60113;48.762;12.302;2022-11-23T11:16:05;16.98;;;10.15;;
72209;SDS011;60113;48.762;12.302;2022-11-23T11:18:41;26.35;;;13.23;;
72209;SDS011;60113;48.762;12.302;2022-11-23T11:21:29;15.75;;;9.85;;
72209;SDS011;60113;48.762;12.302;2022-11-23T11:24:00;21.77;;;12.00;;
72209;SDS011;60113;48.762;12.302;2022-11-23T11:26:29;14.75;;;8.55;;
72209;SDS011;60113;48.762;12.302;2022-11-23T11:28:57;11.57;;;8.40;;
72209;SDS011;60113;48.762;12.302;2022-11-23T11:36:41;15.93;;;9.85;;
72209;SDS011;60113;48.762;12.302;2022-11-23T11:39:14;13.40;;;10.68;;
72209;SDS011;60113;48.762;12.302;2022-11-23T11:41:47;15.77;;;10.05;;
72209;SDS011;60113;48.762;12.302;2022-11-23T11:44:16;18.45;;;12.85;;
72209;SDS011;60113;48.762;12.302;2022-11-23T11:46:47;16.85;;;11.02;;
72209;SDS011;60113;48.762;12.302;2022-11-23T11:49:26;15.82;;;10.38;;
72209;SDS011;60113;48.762;12.302;2022-11-23T11:51:58;17.23;;;11.52;;
72209;SDS011;60113;48.762;12.302;2022-11-23T11:57:10;17.70;;;11.52;;
72209;SDS011;60113;48.762;12.302;2022-11-23T11:59:46;20.50;;;11.73;;
72209;SDS011;60113;48.762;12.302;2022-11-23T12:02:18;15.68;;;11.65;;
72209;SDS011;60113;48.762;12.302;2022-11-23T12:04:59;15.35;;;9.50;;
72209;SDS011;60113;48.762;12.302;2022-11-23T12:10:28;17.95;;;11.70;;
72209;SDS011;60113;48.762;12.302;2022-11-23T12:13:07;9.18;;;7.30;;
72209;SDS011;60113;48.762;12.302;2022-11-23T12:15:43;16.75;;;9.93;;
72209;SDS011;60113;48.762;12.302;2022-11-23T12:18:58;14.20;;;9.15;;
72209;SDS011;60113;48.762;12.302;2022-11-23T12:21:04;16.50;;;10.07;;
72209;SDS011;60113;48.762;12.302;2022-11-23T12:23:36;12.27;;;8.93;;
72209;SDS011;60113;48.762;12.302;2022-11-23T12:26:17;10.73;;;6.68;;
72209;SDS011;60113;48.762;12.302;2022-11-23T12:31:50;12.30;;;8.60;;
72209;SDS011;60113;48.762;12.302;2022-11-23T12:40:09;8.93;;;6.72;;
72209;SDS011;60113;48.762;12.302;2022-11-23T12:42:59;15.85;;;6.55;;
72209;SDS011;60113;48.762;12.302;2022-11-23T12:57:15;13.63;;;7.32;;
72209;SDS011;60113;48.762;12.302;2022-11-23T12:59:53;9.93;;;5.57;;
72209;SDS011;60113;48.762;12.302;2022-11-23T13:23:38;12.68;;;8.35;;
72209;SDS011;60113;48.762;12.302;2022-11-23T13:28:43;11.77;;;7.55;;
72209;SDS011;60113;48.762;12.302;2022-11-23T13:33:39;14.60;;;8.15;;
72209;SDS011;60113;48.762;12.302;2022-11-23T13:36:10;15.80;;;7.47;;
72209;SDS011;60113;48.762;12.302;2022-11-23T13:38:38;11.43;;;6.45;;
72209;SDS011;60113;48.762;12.302;2022-11-23T13:44:41;8.43;;;2.22;;
72209;SDS011;60113;48.762;12.302;2022-11-23T13:47:05;7.05;;;2.22;;
72209;SDS011;60113;48.762;12.302;2022-11-23T13:49:43;7.70;;;2.78;;
72209;SDS011;60113;48.762;12.302;2022-11-23T13:57:42;5.53;;;2.17;;
72209;SDS011;60113;48.762;12.302;2022-11-23T14:12:02;6.50;;;2.70;;
72209;SDS011;60113;48.762;12.302;2022-11-23T14:31:56;18.77;;;10.75;;
72209;SDS011;60113;48.762;12.302;2022-11-23T14:34:43;18.27;;;11.82;;
72209;SDS011;60113;48.762;12.302;2022-11-23T14:37:18;20.35;;;12.43;;
72209;SDS011;60113;48.762;12.302;2022-11-23T14:42:43;21.00;;;14.80;;
72209;SDS011;60113;48.762;12.302;2022-11-23T14:45:14;25.98;;;17.88;;
72209;SDS011;60113;48.762;12.302;2022-11-23T14:47:40;26.27;;;18.20;;
72209;SDS011;60113;48.762;12.302;2022-11-23T14:50:19;25.67;;;17.75;;
72209;SDS011;60113;48.762;12.302;2022-11-23T14:55:18;28.25;;;21.55;;
72209;SDS011;60113;48.762;12.302;2022-11-23T14:57:46;31.40;;;23.35;;
72209;SDS011;60113;48.762;12.302;2022-11-23T15:00:24;33.63;;;24.88;;
72209;SDS011;60113;48.762;12.302;2022-11-23T15:02:53;44.88;;;26.85;;
72209;SDS011;60113;48.762;12.302;2022-11-23T15:05:24;36.28;;;26.52;;
72209;SDS011;60113;48.762;12.302;2022-11-23T15:10:49;46.42;;;31.13;;
72209;SDS011;60113;48.762;12.302;2022-11-23T15:13:20;51.70;;;33.40;;
72209;SDS011;60113;48.762;12.302;2022-11-23T15:15:48;58.40;;;33.70;;
72209;SDS011;60113;48.762;12.302;2022-11-23T15:18:29;52.55;;;34.28;;
72209;SDS011;60113;48.762;12.302;2022-11-23T15:21:00;58.17;;;37.17;;
72209;SDS011;60113;48.762;12.302;2022-11-23T15:23:33;58.60;;;37.45;;
72209;SDS011;60113;48.762;12.302;2022-11-23T15:26:03;58.55;;;36.85;;
72209;SDS011;60113;48.762;12.302;2022-11-23T15:28:36;65.80;;;40.28;;
72209;SDS011;60113;48.762;12.302;2022-11-23T15:31:15;70.43;;;41.97;;
72209;SDS011;60113;48.762;12.302;2022-11-23T15:33:50;72.75;;;41.33;;
72209;SDS011;60113;48.762;12.302;2022-11-23T15:36:25;97.07;;;48.25;;
72209;SDS011;60113;48.762;12.302;2022-11-23T15:38:53;113.47;;;50.53;;
72209;SDS011;60113;48.762;12.302;2022-11-23T15:41:20;112.65;;;53.22;;
72209;SDS011;60113;48.762;12.302;2022-11-23T15:43:51;121.65;;;52.15;;
72209;SDS011;60113;48.762;12.302;2022-11-23T15:46:19;117.43;;;54.05;;
72209;SDS011;60113;48.762;12.302;2022-11-23T15:48:49;132.65;;;56.20;;
72209;SDS011;60113;48.762;12.302;2022-11-23T15:51:21;151.48;;;62.70;;
72209;SDS011;60113;48.762;12.302;2022-11-23T15:53:50;162.90;;;64.60;;
72209;SDS011;60113;48.762;12.302;2022-11-23T15:56:50;157.90;;;62.35;;
72209;SDS011;60113;48.762;12.302;2022-11-23T16:01:53;162.93;;;62.95;;
72209;SDS011;60113;48.762;12.302;2022-11-23T16:04:34;181.20;;;67.10;;
72209;SDS011;60113;48.762;12.302;2022-11-23T16:07:21;177.13;;;66.30;;
72209;SDS011;60113;48.762;12.302;2022-11-23T16:17:51;169.57;;;61.33;;
72209;SDS011;60113;48.762;12.302;2022-11-23T16:20:17;175.55;;;61.78;;
72209;SDS011;60113;48.762;12.302;2022-11-23T16:22:47;180.07;;;63.20;;
72209;SDS011;60113;48.762;12.302;2022-11-23T16:28:02;177.10;;;59.40;;
72209;SDS011;60113;48.762;12.302;2022-11-23T16:30:39;198.07;;;71.00;;
72209;SDS011;60113;48.762;12.302;2022-11-23T16:33:12;199.15;;;69.97;;
72209;SDS011;60113;48.762;12.302;2022-11-23T16:35:39;203.55;;;71.10;;
72209;SDS011;60113;48.762;12.302;2022-11-23T16:38:05;240.18;;;80.93;;
72209;SDS011;60113;48.762;12.302;2022-11-23T16:40:30;265.83;;;89.60;;
72209;SDS011;60113;48.762;12.302;2022-11-23T16:42:56;279.92;;;85.22;;
72209;SDS011;60113;48.762;12.302;2022-11-23T16:45:22;284.25;;;93.07;;
72209;SDS011;60113;48.762;12.302;2022-11-23T16:50:49;296.58;;;98.05;;